createdAt,value
2022-08-14T00:01:36.973Z,19.80
2022-08-14T00:04:35.122Z,19.70
2022-08-14T00:06:51.342Z,19.70
2022-08-14T00:09:19.049Z,19.80
2022-08-14T00:11:47.176Z,19.90
2022-08-14T00:14:17.257Z,19.80
2022-08-14T00:16:45.010Z,19.80
2022-08-14T00:19:18.826Z,19.80
2022-08-14T00:21:51.707Z,19.70
2022-08-14T00:24:28.129Z,19.70
2022-08-14T00:26:56.389Z,19.70
2022-08-14T00:29:25.368Z,19.70
2022-08-14T00:31:56.149Z,19.70
2022-08-14T00:34:37.215Z,19.70
2022-08-14T00:37:13.522Z,19.70
2022-08-14T00:39:40.693Z,19.70
2022-08-14T00:42:21.080Z,19.60
2022-08-14T00:44:48.708Z,19.60
2022-08-14T00:47:17.489Z,19.50
2022-08-14T00:49:45.387Z,19.40
2022-08-14T00:52:17.754Z,19.30
2022-08-14T00:54:46.445Z,19.40
2022-08-14T00:57:13.847Z,19.40
2022-08-14T00:59:41.263Z,19.40
2022-08-14T01:02:09.343Z,19.40
2022-08-14T01:04:50.891Z,19.40
2022-08-14T01:07:21.492Z,19.50
2022-08-14T01:09:55.212Z,19.50
2022-08-14T01:12:26.717Z,19.60
2022-08-14T01:14:58.306Z,19.60
2022-08-14T01:17:52.264Z,19.60
2022-08-14T01:20:40.674Z,19.60
2022-08-14T01:23:16.167Z,19.50
2022-08-14T01:25:46.361Z,19.50
2022-08-14T01:28:47.067Z,19.40
2022-08-14T01:31:05.904Z,19.40
2022-08-14T01:33:59.355Z,19.30
2022-08-14T01:36:22.942Z,19.30
2022-08-14T01:38:58.028Z,19.40
2022-08-14T01:41:29.741Z,19.30
2022-08-14T01:44:01.537Z,19.30
2022-08-14T01:46:33.204Z,19.30
2022-08-14T01:49:07.471Z,19.30
2022-08-14T01:51:34.939Z,19.30
2022-08-14T01:54:14.825Z,19.20
2022-08-14T01:56:44.642Z,19.20
2022-08-14T01:59:18.455Z,19.20
2022-08-14T02:01:58.155Z,19.10
2022-08-14T02:04:54.668Z,19.10
2022-08-14T02:07:34.653Z,19.10
2022-08-14T02:10:16.298Z,19.10
2022-08-14T02:12:56.951Z,19.10
2022-08-14T02:15:25.113Z,19.00
2022-08-14T02:17:51.989Z,19.00
2022-08-14T02:20:23.542Z,19.00
2022-08-14T02:22:52.766Z,19.00
2022-08-14T02:25:22.201Z,19.00
2022-08-14T02:28:22.426Z,19.00
2022-08-14T02:30:38.395Z,18.90
2022-08-14T02:33:07.180Z,18.90
2022-08-14T02:35:34.628Z,18.90
2022-08-14T02:38:11.893Z,18.90
2022-08-14T02:41:01.215Z,18.90
2022-08-14T02:43:36.809Z,18.80
2022-08-14T02:46:06.277Z,18.80
2022-08-14T02:49:03.484Z,18.70
2022-08-14T02:51:30.248Z,18.70
2022-08-14T02:53:58.502Z,18.60
2022-08-14T02:56:30.144Z,18.50
2022-08-14T02:59:17.073Z,18.50
2022-08-14T03:01:50.326Z,18.40
2022-08-14T03:04:20.551Z,18.40
2022-08-14T03:07:06.552Z,18.40
2022-08-14T03:10:25.253Z,18.40
2022-08-14T03:12:31.304Z,18.40
2022-08-14T03:15:03.170Z,18.40
2022-08-14T03:17:32.109Z,18.40
2022-08-14T03:20:11.391Z,18.40
2022-08-14T03:22:41.873Z,18.40
2022-08-14T03:25:12.211Z,18.40
2022-08-14T03:27:48.562Z,18.30
2022-08-14T03:30:24.991Z,18.20
2022-08-14T03:33:08.612Z,18.10
2022-08-14T03:35:40.357Z,18.00
2022-08-14T03:39:12.322Z,18.00
2022-08-14T03:41:16.586Z,17.90
2022-08-14T03:44:01.285Z,17.80
2022-08-14T03:46:39.062Z,17.80
2022-08-14T03:49:29.531Z,17.70
2022-08-14T03:51:58.283Z,17.70
2022-08-14T03:54:27.386Z,17.70
2022-08-14T03:56:54.900Z,17.80
2022-08-14T03:59:22.061Z,17.80
2022-08-14T04:01:57.779Z,17.80
2022-08-14T04:04:28.442Z,17.80
2022-08-14T04:06:57.964Z,17.70
2022-08-14T04:09:26.680Z,17.70
2022-08-14T04:11:54.274Z,17.60
2022-08-14T04:14:23.777Z,17.60
2022-08-14T04:16:50.747Z,17.60
2022-08-14T04:19:19.311Z,17.60
2022-08-14T04:22:03.099Z,17.60
2022-08-14T04:24:38.049Z,17.60
2022-08-14T04:27:09.472Z,17.60
2022-08-14T04:29:38.411Z,17.60
2022-08-14T04:33:01.661Z,17.60
2022-08-14T04:34:56.955Z,17.60
2022-08-14T04:37:43.300Z,17.70
2022-08-14T04:40:32.278Z,17.70
2022-08-14T04:43:18.076Z,17.80
2022-08-14T04:45:45.372Z,17.80
2022-08-14T04:48:39.606Z,17.80
2022-08-14T04:51:10.834Z,17.80
2022-08-14T04:53:43.447Z,17.80
2022-08-14T04:56:31.172Z,17.80
2022-08-14T04:59:10.301Z,17.80
2022-08-14T05:01:45.297Z,17.80
2022-08-14T05:04:20.143Z,17.90
2022-08-14T05:06:49.085Z,17.90
2022-08-14T05:09:18.090Z,18.00
2022-08-14T05:11:47.609Z,18.10
2022-08-14T05:14:16.619Z,18.20
2022-08-14T05:17:02.070Z,18.40
2022-08-14T05:19:31.979Z,18.50
2022-08-14T05:22:17.396Z,18.50
2022-08-14T05:24:50.503Z,18.60
2022-08-14T05:27:23.242Z,18.70
2022-08-14T05:29:56.914Z,18.80
2022-08-14T05:32:28.146Z,18.90
2022-08-14T05:35:04.602Z,19.10
2022-08-14T05:37:32.040Z,19.30
2022-08-14T05:40:00.434Z,19.40
2022-08-14T05:42:31.803Z,19.60
2022-08-14T05:45:00.676Z,19.80
2022-08-14T05:47:29.033Z,20.00
2022-08-14T05:50:07.241Z,20.10
2022-08-14T05:52:51.054Z,20.40
2022-08-14T05:55:22.516Z,21.20
2022-08-14T05:57:55.061Z,21.90
2022-08-14T06:00:34.865Z,22.60
2022-08-14T06:03:17.487Z,23.20
2022-08-14T06:05:46.096Z,23.90
2022-08-14T06:08:35.799Z,24.20
2022-08-14T06:11:08.823Z,24.70
2022-08-14T06:13:44.599Z,24.80
2022-08-14T06:16:12.543Z,25.20
2022-08-14T06:18:39.756Z,25.40
2022-08-14T06:21:12.893Z,25.70
2022-08-14T06:23:40.460Z,25.70
2022-08-14T06:26:07.188Z,25.80
2022-08-14T06:28:33.948Z,25.70
2022-08-14T06:31:01.244Z,25.60
2022-08-14T06:33:30.163Z,25.70
2022-08-14T06:36:18.579Z,26.10
2022-08-14T06:38:45.862Z,26.60
2022-08-14T06:41:20.709Z,27.00
2022-08-14T06:43:48.223Z,27.10
2022-08-14T06:46:23.327Z,27.20
2022-08-14T06:49:01.368Z,27.30
2022-08-14T06:51:44.387Z,27.40
2022-08-14T06:54:12.591Z,27.20
2022-08-14T06:56:40.128Z,27.20
2022-08-14T06:59:16.019Z,27.30
2022-08-14T07:02:04.956Z,27.00
2022-08-14T07:04:52.824Z,27.20
2022-08-14T07:07:19.609Z,27.30
2022-08-14T07:09:51.203Z,26.90
2022-08-14T07:12:52.003Z,26.70
2022-08-14T07:15:06.684Z,26.50
2022-08-14T07:17:34.435Z,26.70
2022-08-14T07:20:04.881Z,26.80
2022-08-14T07:22:56.406Z,26.90
2022-08-14T07:25:20.872Z,27.20
2022-08-14T07:27:47.552Z,27.50
2022-08-14T07:30:33.727Z,27.60
2022-08-14T07:33:01.568Z,27.90
2022-08-14T07:35:30.386Z,27.90
2022-08-14T07:38:18.450Z,27.90
2022-08-14T07:40:48.266Z,27.60
2022-08-14T07:43:20.023Z,27.70
2022-08-14T07:45:50.891Z,27.90
2022-08-14T07:48:25.024Z,28.30
2022-08-14T07:50:55.317Z,28.30
2022-08-14T07:53:29.540Z,28.60
2022-08-14T07:56:22.134Z,28.80
2022-08-14T07:58:51.615Z,29.10
2022-08-14T08:01:20.356Z,29.30
2022-08-14T08:03:51.833Z,28.90
2022-08-14T08:06:24.159Z,29.00
2022-08-14T08:09:01.252Z,29.50
2022-08-14T08:11:34.972Z,29.40
2022-08-14T08:14:17.441Z,28.70
2022-08-14T08:16:51.155Z,28.80
2022-08-14T08:19:19.021Z,29.20
2022-08-14T08:21:47.080Z,28.90
2022-08-14T08:24:18.601Z,29.50
2022-08-14T08:26:47.651Z,29.90
2022-08-14T08:29:28.244Z,30.40
2022-08-14T08:31:56.568Z,30.60
2022-08-14T08:34:30.414Z,30.60
2022-08-14T08:36:58.496Z,30.80
2022-08-14T08:39:30.697Z,30.40
2022-08-14T08:41:57.824Z,30.50
2022-08-14T08:44:31.717Z,29.50
2022-08-14T08:47:05.534Z,29.80
2022-08-14T08:49:48.537Z,29.60
2022-08-14T08:52:31.302Z,30.20
2022-08-14T08:55:04.837Z,30.80
2022-08-14T08:57:39.879Z,31.40
2022-08-14T09:00:25.554Z,31.60
2022-08-14T09:02:55.011Z,31.20
2022-08-14T09:05:23.205Z,30.90
2022-08-14T09:07:50.307Z,30.90
2022-08-14T09:10:23.363Z,31.10
2022-08-14T09:12:56.175Z,31.20
2022-08-14T09:15:24.140Z,31.60
2022-08-14T09:17:51.868Z,32.00
2022-08-14T09:20:19.341Z,32.10
2022-08-14T09:22:55.275Z,32.10
2022-08-14T09:25:59.711Z,32.20
2022-08-14T09:28:14.591Z,31.80
2022-08-14T09:30:57.685Z,31.90
2022-08-14T09:33:55.810Z,32.20
2022-08-14T09:36:51.961Z,32.40
2022-08-14T09:39:45.836Z,31.90
2022-08-14T09:42:51.217Z,31.50
2022-08-14T09:45:40.111Z,30.80
2022-08-14T09:48:27.740Z,31.40
2022-08-14T09:54:13.571Z,31.00
2022-08-14T09:56:30.544Z,30.60
2022-08-14T09:59:09.963Z,30.70
2022-08-14T10:01:40.107Z,30.90
2022-08-14T10:04:34.710Z,31.40
2022-08-14T10:07:05.786Z,31.80
2022-08-14T10:09:33.291Z,31.70
2022-08-14T10:12:05.073Z,32.10
2022-08-14T10:14:37.013Z,32.20
2022-08-14T10:17:07.027Z,31.50
2022-08-14T10:19:46.732Z,31.70
2022-08-14T10:23:13.471Z,32.10
2022-08-14T10:25:17.371Z,32.00
2022-08-14T10:27:56.897Z,32.30
2022-08-14T10:30:26.325Z,32.00
2022-08-14T10:32:57.369Z,31.70
2022-08-14T10:35:31.103Z,32.10
2022-08-14T10:38:00.738Z,32.80
2022-08-14T10:40:38.329Z,32.90
2022-08-14T10:43:23.250Z,33.20
2022-08-14T10:46:21.756Z,33.30
2022-08-14T10:49:04.909Z,33.10
2022-08-14T10:51:41.550Z,32.60
2022-08-14T10:54:16.817Z,33.20
2022-08-14T10:57:24.402Z,33.90
2022-08-14T10:59:55.656Z,34.00
2022-08-14T11:02:54.297Z,33.00
2022-08-14T11:05:25.761Z,32.70
2022-08-14T11:07:56.397Z,32.30
2022-08-14T11:10:27.867Z,32.90
2022-08-14T11:13:01.987Z,32.50
2022-08-14T11:15:32.328Z,32.70
2022-08-14T11:18:01.108Z,32.30
2022-08-14T11:20:30.108Z,32.10
2022-08-14T11:23:00.794Z,32.60
2022-08-14T11:25:41.303Z,32.50
2022-08-14T11:28:14.550Z,32.20
2022-08-14T11:30:53.723Z,32.80
2022-08-14T11:33:29.166Z,33.50
2022-08-14T11:35:59.627Z,33.30
2022-08-14T11:38:29.131Z,33.50
2022-08-14T11:40:58.124Z,34.10
2022-08-14T11:43:29.146Z,34.60
2022-08-14T11:45:57.623Z,34.60
2022-08-14T11:49:02.854Z,34.40
2022-08-14T11:51:53.395Z,33.40
2022-08-14T11:54:33.957Z,33.20
2022-08-14T11:57:02.357Z,33.70
2022-08-14T11:59:33.948Z,34.40
2022-08-14T12:03:10.963Z,34.40
2022-08-14T12:05:04.502Z,34.70
2022-08-14T12:07:36.824Z,34.10
2022-08-14T12:10:26.605Z,34.00
2022-08-14T12:12:57.449Z,33.90
2022-08-14T12:15:34.182Z,34.20
2022-08-14T12:18:02.944Z,34.20
2022-08-14T12:20:45.954Z,34.50
2022-08-14T12:23:25.197Z,34.50
2022-08-14T12:26:31.880Z,34.40
2022-08-14T12:29:11.392Z,34.50
2022-08-14T12:31:44.516Z,34.70
2022-08-14T12:34:20.550Z,34.50
2022-08-14T12:37:06.260Z,34.50
2022-08-14T12:39:40.445Z,34.60
2022-08-14T12:42:07.992Z,34.90
2022-08-14T12:44:39.744Z,34.80
2022-08-14T12:47:15.348Z,34.30
2022-08-14T12:49:53.360Z,34.20
2022-08-14T12:52:55.948Z,34.00
2022-08-14T12:55:32.538Z,34.80
2022-08-14T12:58:35.214Z,35.30
2022-08-14T13:01:16.724Z,35.30
2022-08-14T13:03:48.107Z,35.50
2022-08-14T13:06:19.211Z,35.70
2022-08-14T13:08:52.833Z,35.90
2022-08-14T13:11:23.896Z,36.00
2022-08-14T13:13:58.053Z,35.80
2022-08-14T13:16:38.021Z,36.10
2022-08-14T13:19:11.122Z,34.90
2022-08-14T13:22:04.986Z,33.70
2022-08-14T13:24:27.620Z,33.60
2022-08-14T13:26:58.222Z,34.50
2022-08-14T13:29:28.282Z,35.40
2022-08-14T13:32:00.611Z,36.00
2022-08-14T13:34:29.316Z,36.60
2022-08-14T13:37:03.888Z,36.10
2022-08-14T13:39:36.671Z,36.40
2022-08-14T13:42:13.218Z,36.90
2022-08-14T13:44:42.964Z,36.90
2022-08-14T13:47:10.678Z,36.30
2022-08-14T13:49:40.176Z,35.90
2022-08-14T13:52:48.212Z,35.90
2022-08-14T13:55:03.320Z,35.80
2022-08-14T13:57:36.128Z,36.20
2022-08-14T14:00:12.878Z,36.60
2022-08-14T14:02:46.393Z,37.70
2022-08-14T14:05:21.347Z,38.10
2022-08-14T14:07:53.009Z,38.00
2022-08-14T14:10:28.099Z,38.70
2022-08-14T14:12:56.206Z,39.30
2022-08-14T14:15:33.797Z,37.40
2022-08-14T14:18:29.400Z,36.80
2022-08-14T14:20:58.802Z,37.20
2022-08-14T14:23:29.140Z,36.60
2022-08-14T14:25:57.952Z,37.10
2022-08-14T14:28:31.987Z,37.10
2022-08-14T14:31:07.068Z,37.70
2022-08-14T14:33:47.425Z,37.60
2022-08-14T14:36:23.388Z,37.90
2022-08-14T14:39:08.381Z,37.90
2022-08-14T14:41:43.492Z,38.70
2022-08-14T14:44:15.710Z,37.80
2022-08-14T14:46:49.758Z,36.60
2022-08-14T14:49:21.907Z,35.00
2022-08-14T14:51:51.533Z,34.70
2022-08-14T14:54:31.722Z,35.20
2022-08-14T14:57:09.224Z,35.50
2022-08-14T14:59:37.458Z,36.30
2022-08-14T15:02:07.961Z,37.10
2022-08-14T15:04:37.879Z,38.00
2022-08-14T15:07:05.834Z,38.80
2022-08-14T15:09:35.439Z,39.10
2022-08-14T15:12:16.098Z,39.10
2022-08-14T15:14:55.588Z,39.40
2022-08-14T15:17:25.183Z,39.60
2022-08-14T15:19:56.377Z,39.10
2022-08-14T15:22:25.350Z,38.00
2022-08-14T15:24:52.237Z,37.80
2022-08-14T15:27:26.143Z,38.20
2022-08-14T15:29:56.697Z,37.00
2022-08-14T15:32:23.610Z,36.30
2022-08-14T15:34:51.772Z,36.50
2022-08-14T15:37:23.296Z,36.30
2022-08-14T15:39:52.611Z,36.20
2022-08-14T15:42:22.893Z,36.20
2022-08-14T15:44:57.015Z,35.60
2022-08-14T15:47:28.231Z,35.50
2022-08-14T15:49:59.417Z,35.60
2022-08-14T15:52:35.282Z,36.00
2022-08-14T15:55:09.580Z,35.70
2022-08-14T15:57:37.126Z,35.00
2022-08-14T16:00:43.717Z,34.90
2022-08-14T16:03:18.420Z,34.60
2022-08-14T16:05:55.727Z,34.20
2022-08-14T16:08:28.927Z,33.90
2022-08-14T16:10:57.596Z,33.70
2022-08-14T16:13:41.975Z,34.10
2022-08-14T16:16:47.919Z,34.30
2022-08-14T16:19:00.810Z,34.50
2022-08-14T16:21:29.504Z,34.30
2022-08-14T16:24:01.596Z,33.90
2022-08-14T16:26:29.791Z,33.70
2022-08-14T16:29:05.402Z,33.50
2022-08-14T16:31:35.679Z,33.50
2022-08-14T16:34:46.399Z,33.40
2022-08-14T16:36:57.071Z,33.30
2022-08-14T16:39:24.801Z,33.00
2022-08-14T16:41:52.622Z,32.90
2022-08-14T16:44:21.978Z,32.70
2022-08-14T16:47:06.418Z,32.50
2022-08-14T16:50:02.941Z,32.50
2022-08-14T16:52:25.218Z,32.40
2022-08-14T16:55:09.717Z,32.30
2022-08-14T16:57:54.459Z,32.30
2022-08-14T17:00:44.165Z,32.30
2022-08-14T17:03:13.237Z,32.20
2022-08-14T17:05:46.609Z,32.00
2022-08-14T17:08:41.437Z,31.80
2022-08-14T17:11:10.096Z,31.60
2022-08-14T17:13:59.627Z,31.40
2022-08-14T17:16:37.077Z,31.20
2022-08-14T17:19:09.903Z,31.00
2022-08-14T17:21:42.142Z,30.90
2022-08-14T17:24:57.649Z,30.80
2022-08-14T17:27:03.626Z,30.60
2022-08-14T17:29:44.312Z,30.50
2022-08-14T17:32:28.201Z,30.40
2022-08-14T17:34:57.938Z,30.20
2022-08-14T17:37:34.178Z,30.00
2022-08-14T17:40:22.839Z,29.90
2022-08-14T17:43:01.788Z,29.70
2022-08-14T17:45:41.206Z,29.60
2022-08-14T17:49:10.699Z,29.50
2022-08-14T17:51:24.063Z,29.30
2022-08-14T17:54:02.509Z,29.20
2022-08-14T17:56:32.240Z,29.10
2022-08-14T17:59:05.664Z,29.00
2022-08-14T18:01:37.375Z,28.80
2022-08-14T18:04:25.375Z,28.70
2022-08-14T18:07:16.641Z,28.60
2022-08-14T18:09:58.654Z,28.50
2022-08-14T18:12:36.718Z,28.30
2022-08-14T18:15:16.459Z,28.10
2022-08-14T18:17:52.696Z,28.00
2022-08-14T18:21:42.924Z,27.80
2022-08-14T18:23:13.355Z,27.60
2022-08-14T18:25:53.487Z,27.30
2022-08-14T18:28:48.598Z,27.10
2022-08-14T18:31:21.302Z,27.00
2022-08-14T18:33:57.899Z,26.80
2022-08-14T18:37:16.874Z,26.70
2022-08-14T18:40:02.421Z,26.60
2022-08-14T18:42:34.804Z,26.40
2022-08-14T18:45:02.105Z,26.30
2022-08-14T18:48:05.129Z,26.10
2022-08-14T18:50:32.180Z,26.00
2022-08-14T18:53:10.623Z,25.80
2022-08-14T18:55:53.389Z,25.70
2022-08-14T18:58:27.768Z,25.60
2022-08-14T19:00:59.948Z,25.50
2022-08-14T19:03:46.139Z,25.40
2022-08-14T19:06:16.434Z,25.30
2022-08-14T19:08:50.352Z,25.10
2022-08-14T19:11:36.911Z,25.00
2022-08-14T19:14:06.911Z,24.90
2022-08-14T19:16:35.962Z,24.90
2022-08-14T19:19:08.791Z,24.80
2022-08-14T19:21:39.968Z,24.70
2022-08-14T19:24:27.375Z,24.70
2022-08-14T19:27:23.701Z,24.70
2022-08-14T19:30:19.990Z,24.60
2022-08-14T19:32:55.974Z,24.50
2022-08-14T19:35:48.659Z,24.20
2022-08-14T19:38:54.145Z,24.00
2022-08-14T19:41:29.441Z,23.80
2022-08-14T19:44:32.305Z,23.50
2022-08-14T19:47:06.070Z,23.40
2022-08-14T19:50:25.195Z,23.30
2022-08-14T19:52:37.110Z,23.10
2022-08-14T19:55:18.121Z,23.10
2022-08-14T19:57:52.456Z,23.10
2022-08-14T20:00:29.482Z,23.00
2022-08-14T20:03:10.603Z,23.00
2022-08-14T20:05:45.390Z,22.90
2022-08-14T20:10:59.771Z,22.90
2022-08-14T20:11:19.051Z,22.80
2022-08-14T20:14:00.923Z,22.80
2022-08-14T20:16:38.051Z,22.60
2022-08-14T20:19:28.753Z,22.40
2022-08-14T20:22:34.963Z,22.20
2022-08-14T20:24:50.120Z,22.10
2022-08-14T20:27:34.082Z,21.90
2022-08-14T20:30:29.849Z,21.80
2022-08-14T20:33:02.423Z,21.70
2022-08-14T20:35:35.103Z,21.70
2022-08-14T20:38:29.081Z,21.60
2022-08-14T20:41:06.346Z,21.60
2022-08-14T20:43:58.003Z,21.50
2022-08-14T20:46:31.568Z,21.50
2022-08-14T20:49:05.344Z,21.50
2022-08-14T20:51:47.364Z,21.40
2022-08-14T20:54:33.925Z,21.20
2022-08-14T20:57:12.102Z,21.10
2022-08-14T20:59:50.086Z,21.20
2022-08-14T21:02:46.175Z,21.20
2022-08-14T21:05:18.048Z,21.20
2022-08-14T21:07:51.358Z,21.20
2022-08-14T21:10:36.041Z,21.10
2022-08-14T21:14:08.731Z,21.00
2022-08-14T21:15:56.662Z,21.10
2022-08-14T21:18:34.498Z,21.10
2022-08-14T21:21:07.934Z,21.10
2022-08-14T21:23:54.222Z,21.10
2022-08-14T21:26:33.291Z,21.10
2022-08-14T21:29:11.250Z,21.10
2022-08-14T21:31:38.791Z,21.10
2022-08-14T21:34:31.080Z,21.10
2022-08-14T21:36:54.503Z,21.00
2022-08-14T21:39:24.138Z,21.00
2022-08-14T21:41:59.002Z,21.00
2022-08-14T21:44:42.981Z,20.90
2022-08-14T21:47:12.595Z,20.90
2022-08-14T21:49:40.224Z,20.90
2022-08-14T21:52:50.715Z,20.80
2022-08-14T21:55:08.510Z,20.80
2022-08-14T21:58:43.560Z,20.70
2022-08-14T22:00:36.688Z,20.70
2022-08-14T22:03:10.098Z,20.60
2022-08-14T22:05:40.194Z,20.50
2022-08-14T22:08:12.022Z,20.50
2022-08-14T22:10:46.313Z,20.40
2022-08-14T22:13:16.958Z,20.40
2022-08-14T22:15:49.741Z,20.40
2022-08-14T22:18:19.969Z,20.40
2022-08-14T22:20:48.311Z,20.40
2022-08-14T22:23:21.652Z,20.40
2022-08-14T22:25:50.246Z,20.50
2022-08-14T22:28:22.535Z,20.50
2022-08-14T22:30:55.247Z,20.60
2022-08-14T22:33:31.191Z,20.60
2022-08-14T22:35:59.460Z,20.60
2022-08-14T22:38:35.850Z,20.70
2022-08-14T22:41:29.103Z,20.70
2022-08-14T22:44:01.976Z,20.80
2022-08-14T22:46:29.004Z,20.90
2022-08-14T22:48:57.557Z,21.00
2022-08-14T22:51:26.037Z,21.20
2022-08-14T22:53:56.634Z,21.30
2022-08-14T22:56:29.294Z,21.30
2022-08-14T22:59:00.193Z,21.30
2022-08-14T23:01:55.822Z,21.20
2022-08-14T23:04:35.728Z,21.20
2022-08-14T23:07:14.499Z,21.10
2022-08-14T23:10:33.754Z,21.10
2022-08-14T23:12:54.214Z,21.00
2022-08-14T23:15:23.812Z,21.00
2022-08-14T23:17:50.921Z,21.00
2022-08-14T23:20:20.633Z,21.00
2022-08-14T23:22:51.577Z,21.00
2022-08-14T23:25:20.073Z,20.90
2022-08-14T23:28:07.065Z,20.90
2022-08-14T23:30:55.243Z,20.90
2022-08-14T23:33:22.091Z,20.90
2022-08-14T23:35:59.325Z,21.00
2022-08-14T23:38:31.018Z,21.00
2022-08-14T23:41:04.183Z,21.10
2022-08-14T23:43:31.673Z,21.10
2022-08-14T23:45:59.241Z,21.10
2022-08-14T23:48:28.519Z,21.10
2022-08-14T23:50:56.010Z,21.00
2022-08-14T23:53:28.577Z,21.00
2022-08-14T23:56:31.849Z,21.00
2022-08-14T23:59:00.938Z,21.00
